createdAt,value
2018-03-27T00:00:45.035Z,101093.84
2018-03-27T00:03:10.826Z,101097.11
2018-03-27T00:05:36.621Z,101101.05
2018-03-27T00:08:02.413Z,101093.69
2018-03-27T00:10:28.273Z,101093.27
2018-03-27T00:12:54.042Z,101096.55
2018-03-27T00:15:19.953Z,101091.48
2018-03-27T00:17:45.738Z,101099.94
2018-03-27T00:20:11.524Z,101096.19
2018-03-27T00:22:37.307Z,101096.83
2018-03-27T00:25:03.107Z,101100.33
2018-03-27T00:27:35.004Z,101104.12
2018-03-27T00:30:06.835Z,101099.91
2018-03-27T00:32:38.695Z,101102.16
2018-03-27T00:35:10.911Z,101102.21
2018-03-27T00:37:42.913Z,101107.00
2018-03-27T00:40:14.778Z,101110.59
2018-03-27T00:42:42.395Z,101107.36
2018-03-27T00:45:08.190Z,101107.40
2018-03-27T00:47:34.019Z,101103.95
2018-03-27T00:49:59.810Z,101108.98
2018-03-27T00:52:25.599Z,101103.48
2018-03-27T00:54:51.395Z,101102.55
2018-03-27T00:57:17.192Z,101103.83
2018-03-27T00:59:43.029Z,101100.49
2018-03-27T01:02:08.810Z,101098.67
2018-03-27T01:04:34.630Z,101097.05
2018-03-27T01:07:00.425Z,101098.42
2018-03-27T01:09:26.215Z,101098.26
2018-03-27T01:11:52.004Z,101095.56
2018-03-27T01:14:17.794Z,101101.95
2018-03-27T01:16:43.588Z,101106.33
2018-03-27T01:19:09.372Z,101098.84
2018-03-27T01:21:35.159Z,101101.54
2018-03-27T01:24:00.945Z,101103.81
2018-03-27T01:26:26.740Z,101101.32
2018-03-27T01:28:52.535Z,101103.22
2018-03-27T01:31:18.323Z,101101.66
2018-03-27T01:33:44.117Z,101103.06
2018-03-27T01:36:09.906Z,101097.00
2018-03-27T01:38:35.693Z,101101.91
2018-03-27T01:41:01.639Z,101098.12
2018-03-27T01:43:27.479Z,101098.06
2018-03-27T01:45:53.271Z,101101.67
2018-03-27T01:48:19.054Z,101100.64
2018-03-27T01:50:44.842Z,101103.33
2018-03-27T01:53:10.681Z,101103.11
2018-03-27T01:55:36.470Z,101100.53
2018-03-27T01:58:03.220Z,101101.27
2018-03-27T02:00:29.002Z,101101.13
2018-03-27T02:02:54.791Z,101098.41
2018-03-27T02:05:21.577Z,101095.20
2018-03-27T02:07:47.358Z,101091.11
2018-03-27T02:10:13.183Z,101099.13
2018-03-27T02:12:45.185Z,101103.05
2018-03-27T02:15:17.159Z,101102.44
2018-03-27T02:17:49.154Z,101105.60
2018-03-27T02:20:21.141Z,101104.23
2018-03-27T02:22:46.947Z,101105.50
2018-03-27T02:25:12.734Z,101104.48
2018-03-27T02:27:38.518Z,101103.88
2018-03-27T02:30:04.310Z,101109.92
2018-03-27T02:32:30.106Z,101107.36
2018-03-27T02:34:55.947Z,101106.05
2018-03-27T02:37:21.745Z,101101.50
2018-03-27T02:39:47.526Z,101102.63
2018-03-27T02:42:13.323Z,101103.33
2018-03-27T02:44:39.125Z,101106.94
2018-03-27T02:47:04.923Z,101099.88
2018-03-27T02:49:30.747Z,101098.87
2018-03-27T02:51:56.536Z,101103.72
2018-03-27T02:54:22.320Z,101102.38
2018-03-27T02:56:48.110Z,101106.75
2018-03-27T02:59:13.907Z,101108.62
2018-03-27T03:01:39.706Z,101110.23
2018-03-27T03:04:05.538Z,101106.47
2018-03-27T03:06:31.331Z,101108.39
2018-03-27T03:08:57.130Z,101107.05
2018-03-27T03:11:22.955Z,101111.96
2018-03-27T03:13:48.753Z,101118.91
2018-03-27T03:16:14.547Z,101114.83
2018-03-27T03:18:40.325Z,101114.84
2018-03-27T03:21:06.111Z,101119.39
2018-03-27T03:23:31.902Z,101115.76
2018-03-27T03:25:57.703Z,101121.97
2018-03-27T03:28:23.537Z,101119.29
2018-03-27T03:30:49.311Z,101117.99
2018-03-27T03:33:15.133Z,101114.63
2018-03-27T03:35:40.912Z,101115.89
2018-03-27T03:38:06.734Z,101111.37
2018-03-27T03:40:32.522Z,101118.75
2018-03-27T03:42:58.307Z,101113.98
2018-03-27T03:45:25.098Z,101110.53
2018-03-27T03:47:50.888Z,101115.55
2018-03-27T03:50:16.670Z,101124.19
2018-03-27T03:52:42.462Z,101116.45
2018-03-27T03:55:08.247Z,101117.16
2018-03-27T03:57:34.042Z,101116.23
2018-03-27T03:59:59.825Z,101112.80
2018-03-27T04:02:25.619Z,101112.91
2018-03-27T04:04:51.402Z,101113.89
2018-03-27T04:07:17.194Z,101117.23
2018-03-27T04:09:42.978Z,101114.77
2018-03-27T04:12:08.770Z,101113.51
2018-03-27T04:14:34.556Z,101112.98
2018-03-27T04:17:00.408Z,101106.72
2018-03-27T04:19:26.197Z,101110.81
2018-03-27T04:21:51.986Z,101107.23
2018-03-27T04:24:17.778Z,101107.95
2018-03-27T04:26:43.565Z,101104.29
2018-03-27T04:29:09.347Z,101107.29
2018-03-27T04:31:35.133Z,101100.09
2018-03-27T04:34:00.929Z,101099.86
2018-03-27T04:36:26.714Z,101103.33
2018-03-27T04:38:52.500Z,101104.84
2018-03-27T04:41:18.335Z,101101.34
2018-03-27T04:43:44.167Z,101104.84
2018-03-27T04:46:09.951Z,101102.74
2018-03-27T04:48:35.775Z,101105.20
2018-03-27T04:51:01.584Z,101100.39
2018-03-27T04:53:27.408Z,101101.08
2018-03-27T04:55:53.199Z,101105.63
2018-03-27T04:58:18.986Z,101109.75
2018-03-27T05:00:44.771Z,101107.06
2018-03-27T05:03:10.547Z,101110.98
2018-03-27T05:05:36.542Z,101114.90
2018-03-27T05:08:02.326Z,101110.73
2018-03-27T05:10:28.111Z,101109.69
2018-03-27T05:12:53.934Z,101115.15
2018-03-27T05:15:19.724Z,101116.52
2018-03-27T05:17:45.508Z,101117.36
2018-03-27T05:20:11.338Z,101124.47
2018-03-27T05:22:37.125Z,101127.05
2018-03-27T05:25:02.904Z,101125.20
2018-03-27T05:27:28.698Z,101128.85
2018-03-27T05:29:54.518Z,101132.55
2018-03-27T05:32:20.307Z,101132.63
2018-03-27T05:34:46.130Z,101127.59
2018-03-27T05:37:11.921Z,101131.80
2018-03-27T05:39:37.718Z,101131.80
2018-03-27T05:42:03.522Z,101129.55
2018-03-27T05:44:29.405Z,101131.93
2018-03-27T05:46:55.196Z,101131.91
2018-03-27T05:49:20.990Z,101131.14
2018-03-27T05:51:46.882Z,101137.59
2018-03-27T05:54:12.635Z,101131.95
2018-03-27T05:56:39.570Z,101134.95
2018-03-27T05:59:05.366Z,101136.91
2018-03-27T06:01:31.158Z,101138.42
2018-03-27T06:03:56.942Z,101139.98
2018-03-27T06:06:22.730Z,101136.56
2018-03-27T06:08:49.447Z,101136.97
2018-03-27T06:11:15.303Z,101135.58
2018-03-27T06:13:41.082Z,101145.48
2018-03-27T06:16:06.869Z,101138.25
2018-03-27T06:18:32.676Z,101144.30
2018-03-27T06:20:58.459Z,101140.88
2018-03-27T06:23:24.239Z,101149.56
2018-03-27T06:25:50.027Z,101147.81
2018-03-27T06:28:15.812Z,101141.67
2018-03-27T06:30:41.614Z,101140.64
2018-03-27T06:33:07.393Z,101148.75
2018-03-27T06:35:33.220Z,101142.80
2018-03-27T06:37:59.002Z,101145.23
2018-03-27T06:40:24.971Z,101149.80
2018-03-27T06:42:50.752Z,101150.56
2018-03-27T06:45:16.530Z,101154.30
2018-03-27T06:47:42.357Z,101156.94
2018-03-27T06:50:08.162Z,101161.77
2018-03-27T06:52:33.945Z,101160.70
2018-03-27T06:54:59.728Z,101157.53
2018-03-27T06:57:25.507Z,101156.91
2018-03-27T06:59:51.354Z,101159.52
2018-03-27T07:02:17.178Z,101163.76
2018-03-27T07:04:43.040Z,101152.29
2018-03-27T07:07:08.822Z,101152.18
2018-03-27T07:09:34.653Z,101153.05
2018-03-27T07:12:13.216Z,101148.77
2018-03-27T07:14:47.611Z,101146.67
2018-03-27T07:17:27.481Z,101145.62
2018-03-27T07:19:53.364Z,101150.23
2018-03-27T07:22:19.215Z,101140.79
2018-03-27T07:24:45.036Z,101143.62
2018-03-27T07:27:11.004Z,101144.02
2018-03-27T07:29:36.783Z,101143.88
2018-03-27T07:32:02.621Z,101147.69
2018-03-27T07:34:28.414Z,101146.82
2018-03-27T07:36:54.200Z,101144.30
2018-03-27T07:39:19.978Z,101146.94
2018-03-27T07:41:45.796Z,101135.55
2018-03-27T07:44:11.570Z,101141.34
2018-03-27T07:46:37.397Z,101138.19
2018-03-27T07:49:03.222Z,101142.20
2018-03-27T07:51:29.044Z,101137.04
2018-03-27T07:53:54.877Z,101141.19
2018-03-27T07:56:20.660Z,101139.45
2018-03-27T07:58:46.450Z,101145.92
2018-03-27T08:01:12.233Z,101141.13
2018-03-27T08:03:38.111Z,101139.34
2018-03-27T08:06:03.875Z,101139.50
2018-03-27T08:08:29.693Z,101132.97
2018-03-27T08:10:55.489Z,101133.05
2018-03-27T08:13:21.293Z,101134.84
2018-03-27T08:15:47.074Z,101134.63
2018-03-27T08:18:12.854Z,101134.42
2018-03-27T08:20:38.631Z,101139.34
2018-03-27T08:23:04.419Z,101135.88
2018-03-27T08:25:30.198Z,101136.22
2018-03-27T08:27:55.977Z,101135.06
2018-03-27T08:30:21.761Z,101133.86
2018-03-27T08:32:47.557Z,101128.93
2018-03-27T08:35:20.283Z,101129.55
2018-03-27T08:37:46.057Z,101129.67
2018-03-27T08:40:11.957Z,101134.21
2018-03-27T08:42:37.914Z,101135.63
2018-03-27T08:45:03.694Z,101135.91
2018-03-27T08:47:29.495Z,101135.83
2018-03-27T08:49:55.272Z,101134.73
2018-03-27T08:52:21.260Z,101132.36
2018-03-27T08:54:47.076Z,101132.43
2018-03-27T08:57:12.858Z,101130.69
2018-03-27T08:59:38.686Z,101134.26
2018-03-27T09:02:05.568Z,101134.90
2018-03-27T09:04:31.521Z,101128.34
2018-03-27T09:06:57.398Z,101132.35
2018-03-27T09:09:23.231Z,101131.13
2018-03-27T09:11:49.183Z,101134.17
2018-03-27T09:14:14.959Z,101126.63
2018-03-27T09:16:40.737Z,101127.39
2018-03-27T09:19:06.698Z,101127.59
2018-03-27T09:21:32.473Z,101126.83
2018-03-27T09:23:58.345Z,101123.44
2018-03-27T09:26:24.224Z,101123.95
2018-03-27T09:28:50.005Z,101119.37
2018-03-27T09:31:15.844Z,101123.64
2018-03-27T09:33:41.623Z,101121.33
2018-03-27T09:36:07.402Z,101118.92
2018-03-27T09:38:33.184Z,101117.55
2018-03-27T09:40:58.961Z,101115.02
2018-03-27T09:43:24.745Z,101116.04
2018-03-27T09:45:50.530Z,101107.71
2018-03-27T09:48:16.378Z,101118.78
2018-03-27T09:50:42.153Z,101115.98
2018-03-27T09:53:08.034Z,101111.86
2018-03-27T09:55:34.050Z,101109.36
2018-03-27T09:58:00.032Z,101106.11
2018-03-27T10:00:31.853Z,101108.36
2018-03-27T10:02:57.842Z,101117.27
2018-03-27T10:05:23.629Z,101114.75
2018-03-27T10:07:49.456Z,101115.56
2018-03-27T10:10:15.237Z,101112.95
2018-03-27T10:12:41.023Z,101112.84
2018-03-27T10:15:06.814Z,101107.84
2018-03-27T10:17:32.590Z,101109.05
2018-03-27T10:19:58.555Z,101109.64
2018-03-27T10:22:24.477Z,101105.21
2018-03-27T10:24:50.319Z,101100.55
2018-03-27T10:27:16.210Z,101096.70
2018-03-27T10:29:42.034Z,101093.77
2018-03-27T10:32:07.853Z,101099.42
2018-03-27T10:34:33.689Z,101097.28
2018-03-27T10:36:59.538Z,101095.77
2018-03-27T10:39:32.138Z,101092.14
2018-03-27T10:41:57.970Z,101092.91
2018-03-27T10:44:23.753Z,101090.67
2018-03-27T10:46:49.542Z,101089.64
2018-03-27T10:49:15.356Z,101088.80
2018-03-27T10:51:41.130Z,101083.23
2018-03-27T10:54:06.970Z,101087.79
2018-03-27T10:56:32.750Z,101090.70
2018-03-27T10:58:58.557Z,101087.17
2018-03-27T11:01:24.386Z,101087.28
2018-03-27T11:03:50.207Z,101078.27
2018-03-27T11:06:16.034Z,101082.37
2018-03-27T11:08:41.830Z,101088.16
2018-03-27T11:11:07.686Z,101083.64
2018-03-27T11:13:33.477Z,101076.25
2018-03-27T11:16:00.426Z,101081.68
2018-03-27T11:18:26.358Z,101079.62
2018-03-27T11:20:52.290Z,101073.52
2018-03-27T11:23:18.206Z,101074.37
2018-03-27T11:25:44.083Z,101073.81
2018-03-27T11:28:09.910Z,101078.80
2018-03-27T11:30:35.690Z,101079.41
2018-03-27T11:33:01.506Z,101073.38
2018-03-27T11:35:27.297Z,101071.41
2018-03-27T11:37:53.180Z,101071.73
2018-03-27T11:40:18.934Z,101063.44
2018-03-27T11:42:44.762Z,101063.02
2018-03-27T11:45:10.569Z,101060.86
2018-03-27T11:47:36.668Z,101063.87
2018-03-27T11:50:02.459Z,101067.94
2018-03-27T11:52:28.300Z,101061.61
2018-03-27T11:54:54.106Z,101065.13
2018-03-27T11:57:19.895Z,101066.94
2018-03-27T11:59:45.711Z,101064.88
2018-03-27T12:02:11.542Z,101057.64
2018-03-27T12:04:37.365Z,101060.14
2018-03-27T12:07:03.148Z,101058.56
2018-03-27T12:09:28.938Z,101056.75
2018-03-27T12:11:54.723Z,101054.97
2018-03-27T12:17:04.859Z,101051.86
2018-03-27T12:19:31.635Z,101041.80
2018-03-27T12:21:57.456Z,101039.42
2018-03-27T12:24:23.502Z,101035.33
2018-03-27T12:26:49.527Z,101034.83
2018-03-27T12:29:15.426Z,101031.67
2018-03-27T12:31:41.245Z,101028.36
2018-03-27T12:34:07.063Z,101031.14
2018-03-27T12:36:32.882Z,101015.90
2018-03-27T12:38:58.704Z,101019.53
2018-03-27T12:41:24.522Z,101026.75
2018-03-27T12:43:50.346Z,101019.05
2018-03-27T12:46:16.159Z,101024.06
2018-03-27T12:48:41.987Z,101022.38
2018-03-27T12:51:07.810Z,101015.80
2018-03-27T12:53:33.639Z,101011.89
2018-03-27T12:56:02.899Z,101013.11
2018-03-27T12:58:28.870Z,101013.78
2018-03-27T13:00:54.852Z,100998.82
2018-03-27T13:03:20.838Z,100995.13
2018-03-27T13:05:46.853Z,100998.97
2018-03-27T13:08:12.849Z,100987.08
2018-03-27T13:10:38.829Z,100989.80
2018-03-27T13:13:04.809Z,100984.02
2018-03-27T13:15:30.845Z,100981.86
2018-03-27T13:17:56.836Z,100971.05
2018-03-27T13:20:22.880Z,100978.18
2018-03-27T13:22:48.905Z,100972.05
2018-03-27T13:25:14.890Z,100975.67
2018-03-27T13:27:40.868Z,100972.03
2018-03-27T13:30:06.862Z,100968.99
2018-03-27T13:32:32.847Z,100969.80
2018-03-27T13:34:58.840Z,100969.31
2018-03-27T13:37:24.835Z,100975.75
2018-03-27T13:39:50.828Z,100966.66
2018-03-27T13:42:16.805Z,100971.12
2018-03-27T13:44:43.563Z,100966.22
2018-03-27T13:47:09.536Z,100958.31
2018-03-27T13:49:35.554Z,100956.17
2018-03-27T13:52:01.528Z,100951.09
2018-03-27T13:54:27.495Z,100952.95
2018-03-27T13:56:53.463Z,100947.20
2018-03-27T13:59:19.458Z,100937.38
2018-03-27T14:01:45.435Z,100941.23
2018-03-27T14:04:11.420Z,100930.39
2018-03-27T14:06:37.400Z,100934.34
2018-03-27T14:09:03.409Z,100936.72
2018-03-27T14:11:29.442Z,100927.16
2018-03-27T14:13:55.415Z,100927.38
2018-03-27T14:16:21.399Z,100927.41
2018-03-27T14:18:47.389Z,100925.18
2018-03-27T14:21:13.371Z,100925.60
2018-03-27T14:23:39.381Z,100922.43
2018-03-27T14:26:05.395Z,100919.49
2018-03-27T14:28:31.375Z,100916.38
2018-03-27T14:30:57.354Z,100911.34
2018-03-27T14:33:23.349Z,100913.50
2018-03-27T14:35:49.315Z,100906.73
2018-03-27T14:38:15.299Z,100904.36
2018-03-27T14:40:41.326Z,100903.16
2018-03-27T14:43:07.296Z,100907.93
2018-03-27T14:45:34.128Z,100904.96
2018-03-27T14:48:00.135Z,100902.48
2018-03-27T14:50:26.147Z,100897.72
2018-03-27T14:52:52.177Z,100892.27
2018-03-27T14:55:18.239Z,100894.23
2018-03-27T14:57:44.207Z,100895.77
2018-03-27T15:00:10.183Z,100899.06
2018-03-27T15:02:36.210Z,100896.37
2018-03-27T15:05:02.192Z,100888.52
2018-03-27T15:07:28.225Z,100886.48
2018-03-27T15:09:54.245Z,100879.68
2018-03-27T15:12:20.214Z,100885.64
2018-03-27T15:14:46.235Z,100881.75
2018-03-27T15:17:12.208Z,100884.05
2018-03-27T15:19:38.222Z,100873.14
2018-03-27T15:22:04.250Z,100873.75
2018-03-27T15:24:30.215Z,100867.37
2018-03-27T15:26:56.236Z,100871.66
2018-03-27T15:29:22.213Z,100869.19
2018-03-27T15:31:48.217Z,100870.06
2018-03-27T15:34:14.192Z,100872.08
2018-03-27T15:36:40.251Z,100869.31
2018-03-27T15:39:06.223Z,100857.70
2018-03-27T15:41:32.191Z,100855.39
2018-03-27T15:44:13.113Z,100856.20
2018-03-27T15:46:39.132Z,100851.47
2018-03-27T15:49:05.231Z,100852.22
2018-03-27T15:51:31.243Z,100853.33
2018-03-27T15:53:57.383Z,100845.69
2018-03-27T15:56:23.418Z,100843.27
2018-03-27T15:58:49.450Z,100839.16
2018-03-27T16:01:15.427Z,100837.70
2018-03-27T16:03:41.524Z,100839.22
2018-03-27T16:06:07.495Z,100830.71
2018-03-27T16:08:33.648Z,100837.81
2018-03-27T16:10:59.631Z,100832.00
2018-03-27T16:13:25.627Z,100827.52
2018-03-27T16:15:51.649Z,100820.17
2018-03-27T16:18:17.663Z,100820.14
2018-03-27T16:20:43.637Z,100819.66
2018-03-27T16:23:09.730Z,100820.26
2018-03-27T16:25:36.674Z,100811.55
2018-03-27T16:28:02.686Z,100814.00
2018-03-27T16:30:28.663Z,100804.06
2018-03-27T16:32:54.687Z,100805.88
2018-03-27T16:35:20.658Z,100796.78
2018-03-27T16:37:46.680Z,100796.02
2018-03-27T16:40:12.643Z,100796.97
2018-03-27T16:42:38.626Z,100800.73
2018-03-27T16:45:04.643Z,100808.83
2018-03-27T16:47:30.623Z,100802.41
2018-03-27T16:49:56.662Z,100803.55
2018-03-27T16:52:22.638Z,100802.16
2018-03-27T16:54:48.622Z,100801.78
2018-03-27T16:57:14.602Z,100805.08
2018-03-27T16:59:40.610Z,100810.46
2018-03-27T17:02:06.646Z,100808.39
2018-03-27T17:04:32.617Z,100807.20
2018-03-27T17:06:58.591Z,100807.14
2018-03-27T17:09:24.618Z,100807.41
2018-03-27T17:11:50.594Z,100806.98
2018-03-27T17:14:16.589Z,100808.24
2018-03-27T17:16:42.632Z,100806.47
2018-03-27T17:19:08.611Z,100814.58
2018-03-27T17:21:34.582Z,100811.33
2018-03-27T17:24:00.568Z,100812.14
2018-03-27T17:26:26.602Z,100806.09
2018-03-27T17:28:52.587Z,100804.31
2018-03-27T17:31:18.571Z,100810.25
2018-03-27T17:33:44.566Z,100813.88
2018-03-27T17:36:10.534Z,100811.66
2018-03-27T17:38:36.583Z,100816.78
2018-03-27T17:41:02.582Z,100816.09
2018-03-27T17:43:28.691Z,100819.25
2018-03-27T17:45:55.594Z,100813.34
2018-03-27T17:48:21.606Z,100817.63
2018-03-27T17:50:47.760Z,100819.61
2018-03-27T17:53:13.777Z,100817.03
2018-03-27T17:55:39.815Z,100813.97
2018-03-27T17:58:06.653Z,100809.30
2018-03-27T18:00:32.838Z,100808.38
2018-03-27T18:03:01.056Z,100804.25
2018-03-27T18:05:27.691Z,100802.77
2018-03-27T18:07:58.293Z,100805.83
2018-03-27T18:10:24.322Z,100799.30
2018-03-27T18:12:51.194Z,100804.22
2018-03-27T18:15:17.246Z,100803.68
2018-03-27T18:17:43.574Z,100802.63
2018-03-27T18:20:10.039Z,100793.98
2018-03-27T18:22:37.607Z,100798.28
2018-03-27T18:25:04.085Z,100801.05
2018-03-27T18:27:40.675Z,100799.13
2018-03-27T18:30:07.143Z,100802.92
2018-03-27T18:32:36.017Z,100806.25
2018-03-27T18:35:02.555Z,100801.13
2018-03-27T18:37:29.030Z,100804.84
2018-03-27T18:39:55.707Z,100797.45
2018-03-27T18:42:22.609Z,100796.87
2018-03-27T18:44:53.360Z,100802.09
2018-03-27T18:47:19.874Z,100803.53
2018-03-27T18:49:46.642Z,100804.16
2018-03-27T18:52:13.134Z,100802.63
2018-03-27T18:54:39.755Z,100804.52
2018-03-27T18:57:06.438Z,100805.69
2018-03-27T18:59:32.979Z,100803.63
2018-03-27T19:01:59.510Z,100811.58
2018-03-27T19:04:26.158Z,100809.36
2018-03-27T19:06:52.738Z,100803.26
2018-03-27T19:09:19.323Z,100802.84
2018-03-27T19:11:46.298Z,100805.56
2018-03-27T19:14:12.838Z,100802.48
2018-03-27T19:16:39.536Z,100803.32
2018-03-27T19:19:06.080Z,100804.52
2018-03-27T19:21:32.648Z,100801.52
2018-03-27T19:23:59.215Z,100800.33
2018-03-27T19:26:25.930Z,100794.19
2018-03-27T19:28:52.443Z,100797.00
2018-03-27T19:31:18.971Z,100797.16
2018-03-27T19:33:45.619Z,100799.94
2018-03-27T19:36:12.595Z,100798.20
2018-03-27T19:38:39.166Z,100792.95
2018-03-27T19:41:05.959Z,100792.98
2018-03-27T19:43:32.532Z,100793.44
2018-03-27T19:46:00.872Z,100798.95
2018-03-27T19:48:27.495Z,100797.36
2018-03-27T19:50:54.211Z,100800.65
2018-03-27T19:53:20.734Z,100802.92
2018-03-27T19:55:47.256Z,100807.80
2018-03-27T19:58:14.767Z,100804.52
2018-03-27T20:00:41.319Z,100807.86
2018-03-27T20:03:07.999Z,100804.30
2018-03-27T20:05:34.666Z,100797.08
2018-03-27T20:08:01.496Z,100797.51
2018-03-27T20:10:28.079Z,100797.50
2018-03-27T20:12:54.652Z,100796.34
2018-03-27T20:15:21.354Z,100793.31
2018-03-27T20:17:47.942Z,100786.91
2018-03-27T20:20:14.668Z,100785.98
2018-03-27T20:22:41.219Z,100783.67
2018-03-27T20:25:08.547Z,100788.34
2018-03-27T20:27:36.381Z,100783.17
2018-03-27T20:30:03.035Z,100781.67
2018-03-27T20:32:30.123Z,100779.70
2018-03-27T20:34:57.271Z,100778.17
2018-03-27T20:37:24.042Z,100775.69
2018-03-27T20:39:50.739Z,100775.44
2018-03-27T20:42:17.872Z,100770.23
2018-03-27T20:44:44.794Z,100772.98
2018-03-27T20:47:11.598Z,100764.44
2018-03-27T20:49:39.031Z,100760.06
2018-03-27T20:52:11.242Z,100752.25
2018-03-27T20:54:37.692Z,100752.31
2018-03-27T20:57:03.920Z,100742.08
2018-03-27T21:02:27.310Z,100747.28
2018-03-27T21:04:54.651Z,100751.56
2018-03-27T21:07:20.718Z,100752.37
2018-03-27T21:09:46.739Z,100746.95
2018-03-27T21:12:12.719Z,100746.89
2018-03-27T21:14:38.683Z,100744.70
2018-03-27T21:17:04.667Z,100744.74
2018-03-27T21:19:30.679Z,100741.51
2018-03-27T21:21:56.659Z,100742.82
2018-03-27T21:24:22.667Z,100750.61
2018-03-27T21:26:48.647Z,100741.27
2018-03-27T21:29:14.686Z,100742.11
2018-03-27T21:31:40.659Z,100740.70
2018-03-27T21:34:06.664Z,100742.02
2018-03-27T21:36:32.639Z,100738.55
2018-03-27T21:38:58.675Z,100735.45
2018-03-27T21:41:24.642Z,100726.96
2018-03-27T21:43:50.606Z,100729.13
2018-03-27T21:46:16.572Z,100730.02
2018-03-27T21:48:42.538Z,100726.58
2018-03-27T21:51:08.546Z,100717.66
2018-03-27T21:53:34.515Z,100711.44
2018-03-27T21:56:00.487Z,100712.95
2018-03-27T21:58:26.497Z,100711.56
2018-03-27T22:01:03.524Z,100704.50
2018-03-27T22:03:35.674Z,100705.51
2018-03-27T22:06:01.663Z,100698.36
2018-03-27T22:08:27.670Z,100699.64
2018-03-27T22:10:53.634Z,100698.94
2018-03-27T22:13:19.603Z,100694.56
2018-03-27T22:15:45.578Z,100700.63
2018-03-27T22:18:11.590Z,100696.03
2018-03-27T22:20:37.558Z,100698.13
2018-03-27T22:23:03.578Z,100696.53
2018-03-27T22:25:29.595Z,100690.77
2018-03-27T22:27:55.564Z,100688.64
2018-03-27T22:30:21.531Z,100680.50
2018-03-27T22:32:48.303Z,100672.36
2018-03-27T22:35:14.278Z,100669.41
2018-03-27T22:37:40.249Z,100667.10
2018-03-27T22:40:06.217Z,100677.69
2018-03-27T22:42:32.182Z,100677.72
2018-03-27T22:44:58.146Z,100679.73
2018-03-27T22:47:24.106Z,100673.38
2018-03-27T22:49:50.083Z,100669.70
2018-03-27T22:52:16.050Z,100666.23
2018-03-27T22:54:42.026Z,100662.73
2018-03-27T22:57:07.999Z,100659.95
2018-03-27T22:59:33.970Z,100659.23
2018-03-27T23:01:59.942Z,100661.09
2018-03-27T23:04:25.919Z,100649.95
2018-03-27T23:06:51.930Z,100647.87
2018-03-27T23:09:17.900Z,100642.53
2018-03-27T23:11:43.942Z,100638.73
2018-03-27T23:14:09.914Z,100644.88
2018-03-27T23:16:35.886Z,100637.90
2018-03-27T23:19:01.854Z,100639.28
2018-03-27T23:21:27.817Z,100639.28
2018-03-27T23:23:53.803Z,100644.23
2018-03-27T23:26:19.776Z,100636.56
2018-03-27T23:28:45.750Z,100630.55
2018-03-27T23:31:11.715Z,100636.08
2018-03-27T23:33:37.686Z,100635.09
2018-03-27T23:36:03.657Z,100629.89
2018-03-27T23:38:29.634Z,100631.56
2018-03-27T23:40:55.674Z,100630.81
2018-03-27T23:43:21.681Z,100635.37
2018-03-27T23:45:47.654Z,100633.03
2018-03-27T23:48:13.616Z,100631.42
2018-03-27T23:50:39.586Z,100634.77
2018-03-27T23:53:05.562Z,100628.27
2018-03-27T23:55:31.529Z,100628.33
2018-03-27T23:57:57.500Z,100624.80
